Sierra City, California
Current Conditions -  °F | °C
As of 12:52 PM on Friday 31 Oct 2014 (Local Time) from KBLU Reporting Station
Haze Haze  
Wind Chill:   Ceiling: 400
Heat Index:   Visibility: 6mi
Dew Point:   Wind: 13mph
Humidity: 86%   Direction: 190°S
Pressure: 29.93"   Gusts: 20mph
Location:  39.57°N, 120.64°W
Report Text: KBLU 311952Z AUTO 19011G17KT 6SM BR BKN004 BKN008 OVC012 08/06 A2993 RMK AO2 RAB51E52 SLP092 P0000 T00780056
Loading
Personal Weather Stations






























Interactive Weather Map
Tropical Storm Tracking
New forecast layout! Learn more

10-Day Weather Forecast

Advertisements
Track Severe Weather on mobile